createdAt,value
2018-06-04T00:00:15.725Z,100843.00
2018-06-04T00:05:19.553Z,100848.00
2018-06-04T00:10:23.394Z,100850.00
2018-06-04T00:15:27.889Z,100850.00
2018-06-04T00:20:32.056Z,100849.00
2018-06-04T00:25:35.930Z,100842.00
2018-06-04T00:30:40.014Z,100837.00
2018-06-04T00:35:43.854Z,100834.00
2018-06-04T00:40:47.694Z,100830.00
2018-06-04T00:45:51.541Z,100828.00
2018-06-04T00:50:55.382Z,100824.00
2018-06-04T00:56:16.875Z,100820.00
2018-06-04T01:01:20.962Z,100813.00
2018-06-04T01:06:25.071Z,100810.00
2018-06-04T01:11:29.157Z,100812.00
2018-06-04T01:16:33.246Z,100809.00
2018-06-04T01:21:37.151Z,100804.00
2018-06-04T01:26:41.264Z,100800.00
2018-06-04T01:31:45.089Z,100798.00
2018-06-04T01:36:48.925Z,100791.00
2018-06-04T01:41:53.027Z,100792.00
2018-06-04T01:46:57.114Z,100790.00
2018-06-04T01:52:01.219Z,100784.00
2018-06-04T01:57:05.047Z,100784.00
2018-06-04T02:02:08.925Z,100773.00
2018-06-04T02:07:12.769Z,100782.00
2018-06-04T02:12:16.879Z,100783.00
2018-06-04T02:17:20.961Z,100786.00
2018-06-04T02:22:25.051Z,100782.00
2018-06-04T02:27:29.006Z,100775.00
2018-06-04T02:32:32.846Z,100779.00
2018-06-04T02:37:36.757Z,100781.00
2018-06-04T02:42:41.438Z,100788.00
2018-06-04T02:47:45.538Z,100788.00
2018-06-04T02:52:49.363Z,100781.00
2018-06-04T02:57:53.478Z,100777.00
2018-06-04T03:02:57.321Z,100776.00
2018-06-04T03:08:01.455Z,100767.00
2018-06-04T03:13:05.631Z,100766.00
2018-06-04T03:18:09.466Z,100768.00
2018-06-04T03:23:13.293Z,100773.00
2018-06-04T03:28:17.233Z,100771.00
2018-06-04T03:33:21.070Z,100780.00
2018-06-04T03:38:24.891Z,100782.00
2018-06-04T03:43:28.970Z,100778.00
2018-06-04T03:48:33.063Z,100774.00
2018-06-04T03:53:37.155Z,100772.00
2018-06-04T03:58:40.993Z,100765.00
2018-06-04T04:03:44.819Z,100767.00
2018-06-04T04:08:48.903Z,100761.00
2018-06-04T04:13:52.963Z,100760.00
2018-06-04T04:18:56.782Z,100761.00
2018-06-04T04:24:00.601Z,100749.00
2018-06-04T04:29:04.460Z,100752.00
2018-06-04T04:34:08.275Z,100749.00
2018-06-04T04:39:12.098Z,100743.00
2018-06-04T04:44:15.937Z,100750.00
2018-06-04T04:49:19.781Z,100749.00
2018-06-04T04:54:23.869Z,100753.00
2018-06-04T04:59:27.735Z,100752.00
2018-06-04T05:04:31.675Z,100750.00
2018-06-04T05:09:35.665Z,100760.00
2018-06-04T05:14:39.510Z,100761.00
2018-06-04T05:19:43.361Z,100766.00
2018-06-04T05:24:47.198Z,100766.00
2018-06-04T05:29:51.077Z,100769.00
2018-06-04T05:34:54.954Z,100765.00
2018-06-04T05:39:58.773Z,100762.00
2018-06-04T05:45:05.875Z,100752.00
2018-06-04T05:50:09.681Z,100754.00
2018-06-04T05:55:13.492Z,100756.00
2018-06-04T06:00:17.315Z,100760.00
2018-06-04T06:05:21.125Z,100752.00
2018-06-04T06:10:24.946Z,100740.00
2018-06-04T06:15:28.755Z,100738.00
2018-06-04T06:20:32.567Z,100727.00
2018-06-04T06:25:36.637Z,100730.00
2018-06-04T06:30:40.482Z,100725.00
2018-06-04T06:35:44.342Z,100723.00
2018-06-04T06:40:48.194Z,100714.00
2018-06-04T06:45:52.055Z,100712.00
2018-06-04T06:50:56.192Z,100711.00
2018-06-04T06:56:00.266Z,100716.00
2018-06-04T07:01:04.387Z,100713.00
2018-06-04T07:06:08.241Z,100720.00
2018-06-04T07:11:12.110Z,100718.00
2018-06-04T07:16:15.978Z,100712.00
2018-06-04T07:21:19.823Z,100717.00
2018-06-04T07:26:23.930Z,100710.00
2018-06-04T07:31:27.770Z,100711.00
2018-06-04T07:36:31.634Z,100698.00
2018-06-04T07:41:35.723Z,100698.00
2018-06-04T07:46:45.978Z,100695.00
2018-06-04T07:51:50.200Z,100689.00
2018-06-04T07:56:54.035Z,100685.00
2018-06-04T08:01:57.889Z,100688.00
2018-06-04T08:07:01.726Z,100682.00
2018-06-04T08:12:05.992Z,100677.00
2018-06-04T08:17:09.831Z,100677.00
2018-06-04T08:22:13.658Z,100676.00
2018-06-04T08:27:17.735Z,100677.00
2018-06-04T08:32:21.583Z,100672.00
2018-06-04T08:37:25.879Z,100678.00
2018-06-04T08:42:29.701Z,100674.00
2018-06-04T08:47:33.549Z,100671.00
2018-06-04T08:52:37.370Z,100670.00
2018-06-04T08:57:41.193Z,100671.00
2018-06-04T09:02:45.000Z,100669.00
2018-06-04T09:07:48.807Z,100668.00
2018-06-04T09:12:52.865Z,100659.00
2018-06-04T09:17:56.937Z,100662.00
2018-06-04T09:23:01.020Z,100663.00
2018-06-04T09:28:05.131Z,100655.00
2018-06-04T09:33:08.959Z,100657.00
2018-06-04T09:38:12.793Z,100654.00
2018-06-04T09:43:16.970Z,100652.00
2018-06-04T09:48:21.087Z,100646.00
2018-06-04T09:53:24.938Z,100642.00
2018-06-04T09:58:28.771Z,100635.00
2018-06-04T10:03:32.590Z,100630.00
2018-06-04T10:08:36.427Z,100629.00
2018-06-04T10:13:40.238Z,100627.00
2018-06-04T10:18:44.062Z,100620.00
2018-06-04T10:23:47.910Z,100613.00
2018-06-04T10:28:51.742Z,100606.00
2018-06-04T10:33:55.831Z,100608.00
2018-06-04T10:38:59.939Z,100603.00
2018-06-04T10:44:04.322Z,100606.00
2018-06-04T10:49:08.173Z,100608.00
2018-06-04T10:54:12.822Z,100606.00
2018-06-04T10:59:16.697Z,100602.00
2018-06-04T11:04:20.594Z,100597.00
2018-06-04T11:09:24.703Z,100596.00
2018-06-04T11:14:28.542Z,100588.00
2018-06-04T11:19:32.376Z,100589.00
2018-06-04T11:24:36.475Z,100585.00
2018-06-04T11:29:40.568Z,100577.00
2018-06-04T11:34:44.407Z,100573.00
2018-06-04T11:39:48.772Z,100564.00
2018-06-04T11:44:52.606Z,100562.00
2018-06-04T11:49:56.434Z,100559.00
2018-06-04T11:55:00.577Z,100555.00
2018-06-04T12:00:04.668Z,100555.00
2018-06-04T12:05:10.995Z,100547.00
2018-06-04T12:10:14.841Z,100546.00
2018-06-04T12:15:18.734Z,100542.00
2018-06-04T12:20:22.816Z,100543.00
2018-06-04T12:25:26.729Z,100544.00
2018-06-04T12:30:30.561Z,100537.00
2018-06-04T12:35:35.194Z,100527.00
2018-06-04T12:40:39.029Z,100531.00
2018-06-04T12:45:42.864Z,100529.00
2018-06-04T12:50:46.956Z,100521.00
2018-06-04T12:55:50.780Z,100523.00
2018-06-04T13:00:54.843Z,100519.00
2018-06-04T13:05:58.668Z,100508.00
2018-06-04T13:11:02.971Z,100504.00
2018-06-04T13:16:07.602Z,100497.00
2018-06-04T13:21:11.677Z,100491.00
2018-06-04T13:26:15.482Z,100483.00
2018-06-04T13:31:19.582Z,100479.00
2018-06-04T13:36:23.406Z,100476.00
2018-06-04T13:41:27.492Z,100473.00
2018-06-04T13:46:31.601Z,100470.00
2018-06-04T13:51:35.678Z,100459.00
2018-06-04T13:56:39.497Z,100458.00
2018-06-04T14:01:43.349Z,100453.00
2018-06-04T14:06:47.193Z,100447.00
2018-06-04T14:11:51.098Z,100447.00
2018-06-04T14:16:55.211Z,100441.00
2018-06-04T14:21:59.303Z,100440.00
2018-06-04T14:27:03.198Z,100438.00
2018-06-04T14:32:07.489Z,100437.00
2018-06-04T14:37:11.334Z,100433.00
2018-06-04T14:42:15.188Z,100428.00
2018-06-04T14:47:19.084Z,100424.00
2018-06-04T14:52:23.245Z,100421.00
2018-06-04T14:57:27.430Z,100411.00
2018-06-04T15:02:31.275Z,100403.00
2018-06-04T15:07:35.206Z,100399.00
2018-06-04T15:12:39.294Z,100396.00
2018-06-04T15:17:43.588Z,100392.00
2018-06-04T15:22:47.667Z,100380.00
2018-06-04T15:27:51.500Z,100380.00
2018-06-04T15:32:55.609Z,100385.00
2018-06-04T15:37:59.994Z,100374.00
2018-06-04T15:43:04.197Z,100369.00
2018-06-04T15:48:08.035Z,100368.00
2018-06-04T15:53:11.859Z,100358.00
2018-06-04T15:58:15.722Z,100358.00
2018-06-04T16:03:19.639Z,100356.00
2018-06-04T16:08:23.469Z,100349.00
2018-06-04T16:13:27.590Z,100354.00
2018-06-04T16:18:31.702Z,100349.00
2018-06-04T16:23:35.784Z,100341.00
2018-06-04T16:28:39.713Z,100343.00
2018-06-04T16:33:43.556Z,100340.00
2018-06-04T16:38:47.457Z,100339.00
2018-06-04T16:43:51.613Z,100334.00
2018-06-04T16:48:55.472Z,100330.00
2018-06-04T16:53:59.380Z,100332.00
2018-06-04T16:59:03.233Z,100330.00
2018-06-04T17:04:07.269Z,100327.00
2018-06-04T17:09:11.094Z,100326.00
2018-06-04T17:14:14.930Z,100317.00
2018-06-04T17:19:18.885Z,100322.00
2018-06-04T17:24:23.004Z,100320.00
2018-06-04T17:29:27.084Z,100320.00
2018-06-04T17:34:30.908Z,100325.00
2018-06-04T17:39:35.221Z,100330.00
2018-06-04T17:44:39.298Z,100334.00
2018-06-04T17:49:43.113Z,100345.00
2018-06-04T17:54:47.208Z,100346.00
2018-06-04T17:59:51.042Z,100349.00
2018-06-04T18:04:54.879Z,100353.00
2018-06-04T18:09:58.926Z,100357.00
2018-06-04T18:15:02.842Z,100357.00
2018-06-04T18:20:07.015Z,100367.00
2018-06-04T18:25:10.862Z,100364.00
2018-06-04T18:30:14.823Z,100379.00
2018-06-04T18:35:18.653Z,100377.00
2018-06-04T18:40:22.514Z,100380.00
2018-06-04T18:45:26.482Z,100385.00
2018-06-04T18:50:30.389Z,100391.00
2018-06-04T18:55:34.285Z,100403.00
2018-06-04T19:00:38.415Z,100408.00
2018-06-04T19:05:42.274Z,100415.00
2018-06-04T19:10:46.134Z,100427.00
2018-06-04T19:15:50.269Z,100430.00
2018-06-04T19:20:54.144Z,100436.00
2018-06-04T19:25:58.316Z,100440.00
2018-06-04T19:31:02.777Z,100454.00
2018-06-04T19:36:06.617Z,100461.00
2018-06-04T19:41:10.442Z,100465.00
2018-06-04T19:46:14.767Z,100472.00
2018-06-04T19:51:18.625Z,100481.00
2018-06-04T19:56:22.738Z,100493.00
2018-06-04T20:01:26.868Z,100494.00
2018-06-04T20:06:30.737Z,100502.00
2018-06-04T20:11:34.580Z,100507.00
2018-06-04T20:16:38.435Z,100504.00
2018-06-04T20:21:42.599Z,100512.00
2018-06-04T20:26:46.745Z,100515.00
2018-06-04T20:31:50.857Z,100524.00
2018-06-04T20:36:54.725Z,100523.00
2018-06-04T20:41:58.595Z,100527.00
2018-06-04T20:47:02.720Z,100533.00
2018-06-04T20:52:06.679Z,100534.00
2018-06-04T20:57:10.855Z,100539.00
2018-06-04T21:02:14.685Z,100546.00
2018-06-04T21:07:18.549Z,100556.00
2018-06-04T21:12:22.396Z,100559.00
2018-06-04T21:17:26.493Z,100561.00
2018-06-04T21:22:30.650Z,100559.00
2018-06-04T21:27:34.746Z,100557.00
2018-06-04T21:32:38.816Z,100554.00
2018-06-04T21:37:42.650Z,100558.00
2018-06-04T21:42:47.541Z,100562.00
2018-06-04T21:47:51.493Z,100559.00
2018-06-04T21:52:55.329Z,100559.00
2018-06-04T21:57:59.515Z,100561.00
2018-06-04T22:03:03.382Z,100556.00
2018-06-04T22:08:07.472Z,100555.00
2018-06-04T22:13:11.335Z,100556.00
2018-06-04T22:18:15.196Z,100553.00
2018-06-04T22:23:19.190Z,100549.00
2018-06-04T22:28:23.351Z,100561.00
2018-06-04T22:33:27.226Z,100562.00
2018-06-04T22:38:31.055Z,100559.00
2018-06-04T22:43:34.901Z,100553.00
2018-06-04T22:48:38.735Z,100549.00
2018-06-04T22:53:42.542Z,100555.00
2018-06-04T22:58:46.373Z,100555.00
2018-06-04T23:03:50.294Z,100551.00
2018-06-04T23:08:54.160Z,100548.00
2018-06-04T23:13:58.023Z,100547.00
2018-06-04T23:19:02.166Z,100552.00
2018-06-04T23:24:06.252Z,100549.00
2018-06-04T23:29:10.375Z,100549.00
2018-06-04T23:34:14.230Z,100550.00
2018-06-04T23:39:18.070Z,100558.00
2018-06-04T23:44:22.017Z,100560.00
2018-06-04T23:49:26.862Z,100554.00
2018-06-04T23:54:30.975Z,100553.00
2018-06-04T23:59:35.134Z,100550.00
